CheckWX is a tool to help pilots better visualize weather data.  It is not intended as a substitute for an official pre-flight weather briefing.

09:07:38 UTC

EDDT METAR
Berlin-Tegel International Airport
Berlin, Germany
Current

18 mins ago

EDDT 090850Z 20011KT 170V230 9999 SCT025 19/12 Q1014 NOSIG
Observed
Jul-9 @ 08:50 UTC
Wind
  • 200° at 11 KTS
Visibility
10,000+ meters
Flight Rules
VFR
Cloud Levels
  • Scattered at 2,500' AGL
Temperature
19°C / 66°F
Dewpoint
12°C / 54°F
Humidity
64%
Altimeter
29.94" Hg
Pressure
1013.92 hPa
Previous

48 mins ago

EDDT 090820Z 18008KT 150V210 9999 FEW023 19/12 Q1014 NOSIG
Observed
Jul-9 @ 08:20 UTC
Wind
  • 180° at 8 KTS
Visibility
10,000+ meters
Flight Rules
VFR
Cloud Levels
  • Few at 2,300' AGL
Temperature
19°C / 66°F
Dewpoint
12°C / 54°F
Humidity
64%
Altimeter
29.94" Hg
Pressure
1013.92 hPa
Previous

1 hour ago

EDDT 090750Z 16009KT 140V200 9999 FEW022 18/12 Q1014 NOSIG
Observed
Jul-9 @ 07:50 UTC
Wind
  • 160° at 9 KTS
Visibility
10,000+ meters
Flight Rules
VFR
Cloud Levels
  • Few at 2,200' AGL
Temperature
18°C / 64°F
Dewpoint
12°C / 54°F
Humidity
68%
Altimeter
29.94" Hg
Pressure
1013.92 hPa